createdAt,value
2017-10-03T00:00:24.269Z,16.20
2017-10-03T00:02:53.329Z,16.30
2017-10-03T00:05:21.573Z,16.30
2017-10-03T00:07:49.815Z,16.30
2017-10-03T00:10:18.754Z,16.30
2017-10-03T00:12:46.994Z,16.30
2017-10-03T00:15:16.006Z,16.30
2017-10-03T00:17:44.273Z,16.30
2017-10-03T00:20:12.525Z,16.30
2017-10-03T00:22:41.534Z,16.30
2017-10-03T00:25:10.573Z,16.20
2017-10-03T00:27:38.821Z,16.20
2017-10-03T00:30:07.054Z,16.10
2017-10-03T00:32:35.706Z,16.00
2017-10-03T00:35:03.942Z,15.90
2017-10-03T00:37:32.941Z,16.00
2017-10-03T00:40:01.439Z,16.00
2017-10-03T00:42:29.681Z,16.10
2017-10-03T00:44:57.920Z,16.10
2017-10-03T00:47:26.420Z,16.10
2017-10-03T00:49:54.657Z,16.10
2017-10-03T00:52:22.898Z,16.00
2017-10-03T00:54:51.417Z,15.90
2017-10-03T00:57:19.657Z,15.90
2017-10-03T00:59:48.661Z,15.80
2017-10-03T01:02:16.925Z,15.80
2017-10-03T01:04:45.935Z,15.70
2017-10-03T01:07:14.173Z,15.70
2017-10-03T01:09:42.445Z,15.70
2017-10-03T01:12:10.690Z,15.70
2017-10-03T01:14:38.947Z,15.60
2017-10-03T01:17:07.273Z,15.50
2017-10-03T01:19:35.521Z,15.50
2017-10-03T01:22:03.765Z,15.60
2017-10-03T01:24:32.034Z,15.50
2017-10-03T01:27:01.046Z,15.50
2017-10-03T01:29:29.302Z,15.50
2017-10-03T01:31:58.328Z,15.50
2017-10-03T01:34:26.569Z,15.50
2017-10-03T01:36:54.808Z,15.60
2017-10-03T01:39:23.474Z,15.60
2017-10-03T01:41:52.081Z,15.40
2017-10-03T01:44:20.323Z,15.20
2017-10-03T01:46:48.593Z,15.20
2017-10-03T01:49:16.833Z,15.20
2017-10-03T01:51:45.080Z,15.00
2017-10-03T01:54:13.342Z,14.90
2017-10-03T01:56:41.578Z,14.80
2017-10-03T01:59:10.585Z,14.80
2017-10-03T02:01:38.903Z,14.80
2017-10-03T02:04:07.141Z,14.80
2017-10-03T02:06:35.385Z,14.80
2017-10-03T02:09:03.649Z,14.60
2017-10-03T02:11:31.889Z,14.60
2017-10-03T02:14:00.157Z,14.60
2017-10-03T02:16:29.169Z,14.70
2017-10-03T02:18:57.409Z,14.70
2017-10-03T02:21:25.649Z,14.60
2017-10-03T02:23:54.301Z,14.60
2017-10-03T02:26:22.538Z,14.50
2017-10-03T02:28:51.545Z,14.40
2017-10-03T02:31:19.814Z,14.40
2017-10-03T02:33:48.822Z,14.50
2017-10-03T02:36:17.062Z,14.50
2017-10-03T02:38:45.330Z,14.50
2017-10-03T02:41:13.573Z,14.50
2017-10-03T02:43:41.995Z,14.50
2017-10-03T02:46:10.314Z,14.40
2017-10-03T02:48:38.554Z,14.40
2017-10-03T02:51:06.795Z,14.30
2017-10-03T02:53:35.057Z,14.10
2017-10-03T02:56:03.303Z,14.00
2017-10-03T02:58:31.547Z,13.90
2017-10-03T03:00:59.808Z,13.70
2017-10-03T03:03:28.045Z,13.60
2017-10-03T03:05:56.409Z,13.60
2017-10-03T03:08:26.050Z,13.40
2017-10-03T03:10:54.293Z,13.40
2017-10-03T03:13:23.297Z,13.30
2017-10-03T03:15:51.574Z,13.30
2017-10-03T03:18:19.814Z,13.30
2017-10-03T03:20:48.055Z,13.20
2017-10-03T03:23:16.312Z,13.20
2017-10-03T03:25:44.597Z,13.10
2017-10-03T03:28:12.832Z,13.20
2017-10-03T03:30:41.377Z,13.30
2017-10-03T03:33:09.622Z,13.20
2017-10-03T03:35:37.867Z,13.20
2017-10-03T03:38:06.897Z,13.10
2017-10-03T03:40:35.142Z,13.10
2017-10-03T03:43:04.162Z,13.10
2017-10-03T03:45:32.641Z,13.00
2017-10-03T03:48:00.885Z,13.00
2017-10-03T03:50:29.165Z,13.00
2017-10-03T03:52:57.796Z,13.00
2017-10-03T03:55:26.033Z,13.10
2017-10-03T03:57:55.045Z,13.00
2017-10-03T04:00:23.317Z,12.90
2017-10-03T04:02:51.556Z,13.00
2017-10-03T04:05:19.816Z,12.90
2017-10-03T04:07:48.057Z,12.90
2017-10-03T04:10:16.296Z,12.90
2017-10-03T04:12:44.542Z,12.90
2017-10-03T04:15:13.033Z,12.90
2017-10-03T04:17:41.279Z,12.90
2017-10-03T04:20:09.526Z,13.00
2017-10-03T04:22:38.548Z,12.90
2017-10-03T04:25:06.814Z,12.80
2017-10-03T04:27:35.056Z,12.80
2017-10-03T04:30:04.357Z,12.90
2017-10-03T04:32:33.361Z,12.90
2017-10-03T04:35:02.378Z,12.90
2017-10-03T04:37:30.999Z,12.80
2017-10-03T04:39:59.238Z,12.80
2017-10-03T04:42:27.476Z,12.90
2017-10-03T04:44:56.505Z,12.80
2017-10-03T04:47:24.925Z,12.80
2017-10-03T04:49:53.175Z,12.80
2017-10-03T04:52:21.425Z,12.90
2017-10-03T04:54:49.682Z,12.80
2017-10-03T04:57:18.685Z,12.80
2017-10-03T04:59:48.021Z,12.70
2017-10-03T05:02:16.286Z,12.70
2017-10-03T05:04:44.530Z,12.80
2017-10-03T05:07:12.982Z,12.80
2017-10-03T05:09:42.381Z,12.80
2017-10-03T05:12:10.618Z,12.80
2017-10-03T05:14:38.893Z,12.80
2017-10-03T05:17:07.137Z,12.80
2017-10-03T05:19:35.386Z,12.80
2017-10-03T05:22:03.726Z,12.80
2017-10-03T05:24:31.974Z,12.80
2017-10-03T05:27:00.217Z,12.80
2017-10-03T05:29:28.530Z,12.70
2017-10-03T05:31:57.530Z,12.80
2017-10-03T05:34:26.548Z,12.90
2017-10-03T05:36:54.806Z,12.90
2017-10-03T05:39:23.817Z,12.80
2017-10-03T05:41:52.061Z,12.80
2017-10-03T05:44:20.583Z,12.80
2017-10-03T05:46:48.833Z,12.80
2017-10-03T05:49:18.197Z,12.90
2017-10-03T05:51:46.449Z,12.90
2017-10-03T05:54:14.685Z,12.80
2017-10-03T05:56:43.701Z,12.90
2017-10-03T05:59:11.962Z,12.90
2017-10-03T06:01:40.323Z,12.90
2017-10-03T06:04:08.545Z,12.90
2017-10-03T06:06:37.650Z,12.90
2017-10-03T06:09:05.886Z,13.00
2017-10-03T06:11:34.123Z,13.00
2017-10-03T06:14:02.395Z,13.00
2017-10-03T06:16:30.637Z,13.10
2017-10-03T06:18:58.885Z,13.10
2017-10-03T06:21:27.926Z,13.00
2017-10-03T06:23:56.176Z,13.00
2017-10-03T06:26:24.426Z,13.00
2017-10-03T06:28:53.368Z,13.10
2017-10-03T06:31:21.621Z,13.20
2017-10-03T06:33:49.866Z,13.20
2017-10-03T06:36:18.126Z,13.20
2017-10-03T06:38:46.366Z,13.20
2017-10-03T06:41:14.605Z,13.20
2017-10-03T06:43:43.638Z,13.20
2017-10-03T06:46:11.873Z,13.20
2017-10-03T06:48:40.119Z,13.30
2017-10-03T06:51:09.094Z,13.30
2017-10-03T06:53:37.333Z,13.30
2017-10-03T06:56:05.765Z,13.30
2017-10-03T06:58:34.027Z,13.20
2017-10-03T07:01:02.277Z,13.30
2017-10-03T07:03:30.519Z,13.30
2017-10-03T07:05:58.799Z,13.40
2017-10-03T07:08:27.826Z,13.50
2017-10-03T07:10:56.069Z,13.40
2017-10-03T07:13:25.273Z,13.50
2017-10-03T07:15:53.523Z,13.40
2017-10-03T07:18:21.826Z,13.50
2017-10-03T07:20:50.859Z,13.50
2017-10-03T07:23:19.101Z,13.50
2017-10-03T07:25:48.117Z,13.40
2017-10-03T07:28:16.365Z,13.40
2017-10-03T07:30:44.605Z,13.40
2017-10-03T07:33:12.850Z,13.30
2017-10-03T07:35:41.764Z,13.40
2017-10-03T07:38:09.993Z,13.40
2017-10-03T07:40:39.006Z,13.50
2017-10-03T07:43:07.278Z,13.50
2017-10-03T07:45:35.525Z,13.60
2017-10-03T07:48:03.829Z,13.60
2017-10-03T07:50:32.837Z,13.70
2017-10-03T07:53:01.290Z,13.70
2017-10-03T07:55:30.307Z,13.90
2017-10-03T07:57:58.629Z,13.90
2017-10-03T08:00:26.905Z,14.10
2017-10-03T08:02:55.154Z,14.10
2017-10-03T08:05:23.418Z,14.10
2017-10-03T08:07:51.662Z,14.10
2017-10-03T08:10:19.909Z,14.20
2017-10-03T08:12:48.171Z,14.30
2017-10-03T08:15:16.419Z,14.30
2017-10-03T08:17:44.662Z,14.40
2017-10-03T08:20:13.497Z,14.40
2017-10-03T08:22:41.733Z,14.40
2017-10-03T08:25:10.752Z,14.40
2017-10-03T08:27:39.961Z,14.40
2017-10-03T08:30:08.226Z,14.40
2017-10-03T08:32:36.481Z,14.40
2017-10-03T08:35:05.517Z,14.40
2017-10-03T08:37:33.929Z,14.40
2017-10-03T08:40:02.176Z,14.50
2017-10-03T08:42:30.498Z,14.60
2017-10-03T08:44:58.755Z,14.70
2017-10-03T08:47:27.001Z,14.60
2017-10-03T08:49:55.270Z,14.50
2017-10-03T08:52:25.745Z,14.40
2017-10-03T08:54:53.999Z,14.40
2017-10-03T08:57:22.258Z,14.40
2017-10-03T08:59:50.501Z,14.40
2017-10-03T09:02:21.719Z,14.40
2017-10-03T09:04:50.046Z,14.40
2017-10-03T09:07:18.301Z,14.50
2017-10-03T09:09:47.313Z,14.80
2017-10-03T09:12:15.588Z,14.80
2017-10-03T09:14:43.848Z,14.90
2017-10-03T09:17:12.857Z,15.00
2017-10-03T09:19:41.130Z,14.90
2017-10-03T09:22:09.374Z,15.00
2017-10-03T09:24:37.631Z,14.90
2017-10-03T09:27:05.959Z,15.00
2017-10-03T09:29:34.250Z,15.10
2017-10-03T09:32:02.482Z,15.30
2017-10-03T09:34:30.752Z,15.30
2017-10-03T09:36:59.002Z,15.40
2017-10-03T09:39:27.397Z,15.40
2017-10-03T09:41:55.678Z,15.30
2017-10-03T09:44:23.930Z,15.40
2017-10-03T09:46:52.906Z,15.50
2017-10-03T09:49:21.238Z,15.70
2017-10-03T09:51:49.478Z,16.00
2017-10-03T09:54:18.282Z,16.10
2017-10-03T09:56:46.554Z,16.00
2017-10-03T09:59:14.801Z,15.90
2017-10-03T10:01:43.040Z,15.80
2017-10-03T10:04:11.323Z,15.80
2017-10-03T10:06:39.561Z,15.90
2017-10-03T10:09:07.801Z,16.10
2017-10-03T10:11:36.125Z,16.70
2017-10-03T10:14:04.397Z,17.00
2017-10-03T10:16:32.650Z,17.00
2017-10-03T10:19:00.925Z,17.50
2017-10-03T10:21:29.233Z,17.90
2017-10-03T10:23:57.473Z,18.00
2017-10-03T10:26:25.737Z,17.80
2017-10-03T10:28:53.990Z,17.30
2017-10-03T10:31:25.218Z,16.70
2017-10-03T10:33:53.513Z,16.70
2017-10-03T10:36:21.777Z,16.60
2017-10-03T10:38:50.022Z,16.60
2017-10-03T10:41:18.301Z,16.60
2017-10-03T10:43:46.545Z,16.50
2017-10-03T10:46:14.781Z,16.40
2017-10-03T10:48:43.045Z,16.30
2017-10-03T10:51:11.285Z,16.40
2017-10-03T10:53:39.538Z,16.40
2017-10-03T10:56:08.174Z,16.40
2017-10-03T10:58:36.493Z,16.60
2017-10-03T11:01:05.506Z,17.00
2017-10-03T11:03:33.778Z,17.00
2017-10-03T11:06:02.742Z,17.70
2017-10-03T11:08:31.759Z,17.90
2017-10-03T11:11:00.228Z,17.90
2017-10-03T11:13:29.242Z,18.80
2017-10-03T11:15:57.553Z,18.80
2017-10-03T11:18:26.083Z,18.90
2017-10-03T11:20:55.149Z,18.30
2017-10-03T11:23:35.271Z,18.20
2017-10-03T11:26:03.522Z,18.10
2017-10-03T11:28:31.785Z,18.00
2017-10-03T11:31:00.833Z,17.80
2017-10-03T11:33:29.110Z,17.80
2017-10-03T11:35:57.333Z,17.70
2017-10-03T11:38:25.957Z,18.00
2017-10-03T11:40:54.218Z,18.50
2017-10-03T11:43:22.516Z,19.10
2017-10-03T11:45:52.106Z,19.80
2017-10-03T11:48:20.337Z,20.90
2017-10-03T11:50:48.580Z,21.60
2017-10-03T11:53:16.846Z,20.60
2017-10-03T11:55:47.495Z,20.10
2017-10-03T11:58:15.714Z,20.20
2017-10-03T12:00:45.053Z,21.10
2017-10-03T12:03:14.141Z,21.00
2017-10-03T12:05:42.385Z,21.40
2017-10-03T12:08:11.409Z,22.60
2017-10-03T12:10:39.657Z,22.60
2017-10-03T12:13:07.897Z,22.40
2017-10-03T12:15:36.159Z,22.40
2017-10-03T12:18:04.546Z,22.00
2017-10-03T12:20:32.994Z,21.10
2017-10-03T12:23:01.321Z,20.90
2017-10-03T12:25:31.570Z,20.50
2017-10-03T12:27:59.869Z,20.00
2017-10-03T12:30:28.242Z,19.40
2017-10-03T12:32:56.812Z,18.90
2017-10-03T12:35:26.059Z,18.40
2017-10-03T12:37:55.231Z,18.00
2017-10-03T12:40:23.689Z,17.70
2017-10-03T12:42:53.002Z,17.40
2017-10-03T12:45:22.348Z,17.30
2017-10-03T12:47:50.725Z,17.20
2017-10-03T12:50:18.978Z,17.30
2017-10-03T12:52:47.245Z,17.60
2017-10-03T12:55:15.493Z,18.20
2017-10-03T12:57:44.770Z,20.10
2017-10-03T13:00:13.037Z,20.00
2017-10-03T13:02:41.288Z,20.90
2017-10-03T13:05:09.530Z,21.40
2017-10-03T13:07:38.049Z,21.60
2017-10-03T13:10:06.318Z,22.30
2017-10-03T13:12:34.584Z,22.70
2017-10-03T13:15:02.851Z,21.50
2017-10-03T13:17:31.097Z,20.20
2017-10-03T13:19:59.342Z,19.50
2017-10-03T13:22:27.609Z,19.10
2017-10-03T13:24:55.847Z,19.00
2017-10-03T13:27:24.081Z,19.00
2017-10-03T13:29:53.158Z,19.30
2017-10-03T13:32:21.399Z,19.30
2017-10-03T13:34:49.641Z,18.90
2017-10-03T13:37:17.910Z,18.50
2017-10-03T13:39:46.157Z,18.20
2017-10-03T13:42:14.399Z,18.00
2017-10-03T13:44:43.457Z,18.60
2017-10-03T13:47:11.707Z,18.60
2017-10-03T13:49:39.953Z,19.30
2017-10-03T13:52:08.537Z,20.20
2017-10-03T13:54:36.870Z,21.60
2017-10-03T13:57:05.113Z,22.90
2017-10-03T13:59:33.385Z,24.00
2017-10-03T14:02:01.622Z,24.40
2017-10-03T14:04:29.970Z,24.60
2017-10-03T14:06:58.354Z,24.30
2017-10-03T14:09:26.607Z,22.90
2017-10-03T14:11:54.849Z,22.20
2017-10-03T14:14:23.369Z,21.80
2017-10-03T14:16:51.609Z,22.10
2017-10-03T14:19:19.867Z,22.80
2017-10-03T14:21:48.913Z,23.00
2017-10-03T14:24:17.161Z,23.00
2017-10-03T14:26:49.169Z,22.10
2017-10-03T14:29:18.678Z,21.20
2017-10-03T14:31:46.954Z,20.50
2017-10-03T14:34:15.173Z,20.90
2017-10-03T14:36:44.010Z,22.20
2017-10-03T14:39:12.253Z,23.50
2017-10-03T14:41:40.502Z,24.70
2017-10-03T14:44:08.783Z,25.20
2017-10-03T14:46:38.253Z,24.70
2017-10-03T14:49:06.485Z,24.70
2017-10-03T14:51:34.765Z,24.30
2017-10-03T14:54:04.116Z,24.00
2017-10-03T14:56:32.485Z,22.80
2017-10-03T14:59:00.969Z,21.80
2017-10-03T15:01:29.194Z,20.90
2017-10-03T15:03:57.626Z,20.50
2017-10-03T15:06:25.902Z,20.20
2017-10-03T15:08:54.140Z,19.90
2017-10-03T15:11:22.393Z,19.60
2017-10-03T15:13:51.435Z,18.90
2017-10-03T15:16:19.677Z,18.80
2017-10-03T15:18:47.939Z,18.40
2017-10-03T15:21:17.517Z,18.30
2017-10-03T15:23:45.763Z,18.30
2017-10-03T15:26:14.012Z,18.20
2017-10-03T15:28:42.274Z,18.20
2017-10-03T15:31:10.522Z,18.20
2017-10-03T15:33:38.793Z,18.20
2017-10-03T15:36:07.193Z,18.20
2017-10-03T15:38:36.197Z,18.10
2017-10-03T15:41:05.214Z,18.10
2017-10-03T15:43:33.916Z,18.00
2017-10-03T15:46:02.169Z,18.10
2017-10-03T15:48:30.842Z,18.10
2017-10-03T15:50:59.086Z,18.10
2017-10-03T15:53:27.333Z,18.00
2017-10-03T15:55:55.660Z,18.00
2017-10-03T15:58:23.918Z,17.90
2017-10-03T16:00:52.157Z,17.80
2017-10-03T16:03:20.402Z,17.80
2017-10-03T16:05:49.865Z,17.80
2017-10-03T16:08:18.258Z,17.70
2017-10-03T16:10:46.504Z,17.60
2017-10-03T16:13:14.792Z,17.50
2017-10-03T16:15:43.073Z,17.20
2017-10-03T16:18:12.386Z,17.20
2017-10-03T16:20:40.676Z,17.10
2017-10-03T16:23:10.062Z,17.00
2017-10-03T16:25:38.642Z,17.00
2017-10-03T16:28:07.213Z,17.00
2017-10-03T16:30:35.463Z,16.90
2017-10-03T16:33:03.893Z,16.90
2017-10-03T16:35:32.326Z,16.90
2017-10-03T16:38:00.842Z,16.90
2017-10-03T16:40:29.122Z,16.90
2017-10-03T16:42:57.429Z,16.90
2017-10-03T16:45:27.617Z,16.80
2017-10-03T16:47:58.235Z,16.80
2017-10-03T16:50:28.701Z,16.70
2017-10-03T16:52:56.930Z,16.60
2017-10-03T16:55:25.235Z,16.50
2017-10-03T16:57:53.459Z,16.50
2017-10-03T17:00:21.692Z,16.50
2017-10-03T17:02:50.103Z,16.50
2017-10-03T17:05:18.337Z,16.50
2017-10-03T17:07:47.639Z,16.50
2017-10-03T17:10:16.002Z,16.30
2017-10-03T17:12:44.246Z,16.20
2017-10-03T17:15:12.629Z,16.10
2017-10-03T17:17:40.881Z,16.10
2017-10-03T17:20:09.895Z,15.90
2017-10-03T17:22:38.902Z,15.70
2017-10-03T17:25:07.601Z,15.70
2017-10-03T17:27:35.841Z,15.70
2017-10-03T17:30:04.089Z,15.60
2017-10-03T17:32:32.741Z,15.60
2017-10-03T17:35:00.978Z,15.50
2017-10-03T17:37:29.993Z,15.50
2017-10-03T17:39:58.257Z,15.40
2017-10-03T17:42:26.510Z,15.40
2017-10-03T17:44:54.763Z,15.50
2017-10-03T17:47:23.017Z,15.50
2017-10-03T17:49:51.257Z,15.50
2017-10-03T17:52:19.498Z,15.50
2017-10-03T17:54:47.861Z,15.40
2017-10-03T17:57:16.105Z,15.50
2017-10-03T17:59:44.495Z,15.50
2017-10-03T18:02:12.741Z,15.50
2017-10-03T18:04:41.093Z,15.50
2017-10-03T18:07:09.373Z,15.50
2017-10-03T18:09:37.652Z,15.60
2017-10-03T18:12:05.894Z,15.60
2017-10-03T18:14:34.133Z,15.70
2017-10-03T18:17:02.612Z,15.60
2017-10-03T18:19:31.621Z,15.20
2017-10-03T18:21:59.866Z,15.20
2017-10-03T18:24:28.142Z,15.10
2017-10-03T18:26:56.385Z,14.90
2017-10-03T18:29:24.645Z,14.80
2017-10-03T18:34:27.486Z,14.60
2017-10-03T18:36:55.847Z,14.60
2017-10-03T18:39:24.085Z,14.60
2017-10-03T18:41:52.333Z,14.60
2017-10-03T18:44:20.606Z,14.50
2017-10-03T18:46:49.619Z,14.40
2017-10-03T18:49:17.858Z,14.40
2017-10-03T18:51:46.125Z,14.50
2017-10-03T18:54:14.380Z,14.60
2017-10-03T18:56:42.639Z,14.70
2017-10-03T18:59:11.237Z,14.70
2017-10-03T19:01:39.474Z,14.80
2017-10-03T19:04:08.485Z,14.70
2017-10-03T19:06:36.973Z,14.70
2017-10-03T19:09:05.214Z,14.60
2017-10-03T19:11:34.245Z,14.60
2017-10-03T19:14:02.516Z,14.50
2017-10-03T19:16:30.761Z,14.50
2017-10-03T19:18:59.777Z,14.40
2017-10-03T19:21:28.495Z,14.40
2017-10-03T19:23:56.738Z,14.40
2017-10-03T19:26:24.990Z,14.40
2017-10-03T19:28:53.257Z,14.30
2017-10-03T19:31:21.509Z,14.40
2017-10-03T19:33:49.753Z,14.30
2017-10-03T19:36:18.013Z,14.30
2017-10-03T19:38:46.258Z,14.30
2017-10-03T19:41:14.502Z,14.30
2017-10-03T19:43:43.149Z,14.20
2017-10-03T19:46:11.392Z,14.20
2017-10-03T19:48:39.634Z,14.20
2017-10-03T19:51:07.899Z,14.20
2017-10-03T19:53:36.170Z,14.30
2017-10-03T19:56:04.421Z,14.30
2017-10-03T19:58:33.456Z,14.20
2017-10-03T20:01:01.696Z,14.20
2017-10-03T20:03:29.930Z,14.20
2017-10-03T20:05:58.697Z,14.20
2017-10-03T20:08:27.076Z,14.20
2017-10-03T20:10:55.326Z,14.20
2017-10-03T20:13:23.593Z,14.10
2017-10-03T20:15:51.887Z,14.10
2017-10-03T20:18:20.882Z,14.10
2017-10-03T20:20:49.149Z,14.10
2017-10-03T20:23:17.402Z,14.10
2017-10-03T20:25:46.579Z,14.10
2017-10-03T20:28:15.033Z,14.10
2017-10-03T20:30:43.269Z,14.20
2017-10-03T20:33:12.281Z,14.30
2017-10-03T20:35:40.542Z,14.30
2017-10-03T20:38:08.794Z,14.30
2017-10-03T20:40:37.025Z,14.30
2017-10-03T20:43:05.302Z,14.40
2017-10-03T20:45:34.442Z,14.40
2017-10-03T20:48:02.682Z,14.30
2017-10-03T20:50:31.128Z,14.20
2017-10-03T20:52:59.369Z,14.20
2017-10-03T20:55:27.621Z,14.20
2017-10-03T20:57:55.889Z,14.10
2017-10-03T21:00:24.127Z,14.10
2017-10-03T21:02:53.137Z,14.10
2017-10-03T21:05:21.417Z,14.00
2017-10-03T21:07:49.657Z,14.10
2017-10-03T21:10:17.918Z,14.20
2017-10-03T21:12:48.013Z,14.10
2017-10-03T21:15:16.275Z,14.10
2017-10-03T21:17:44.515Z,14.00
2017-10-03T21:20:12.790Z,14.00
2017-10-03T21:22:41.035Z,13.90
2017-10-03T21:25:09.282Z,13.90
2017-10-03T21:27:37.537Z,13.90
2017-10-03T21:30:05.773Z,13.80
2017-10-03T21:32:34.019Z,13.90
2017-10-03T21:35:02.934Z,13.90
2017-10-03T21:37:31.153Z,13.90
2017-10-03T21:40:00.169Z,13.70
2017-10-03T21:42:40.138Z,13.70
2017-10-03T21:45:08.384Z,13.70
2017-10-03T21:47:36.630Z,13.60
2017-10-03T21:50:05.377Z,13.60
2017-10-03T21:52:33.619Z,13.50
2017-10-03T21:55:01.864Z,13.50
2017-10-03T21:57:30.130Z,13.40
2017-10-03T21:59:58.369Z,13.30
2017-10-03T22:02:26.613Z,13.20
2017-10-03T22:04:55.645Z,13.10
2017-10-03T22:07:23.889Z,13.10
2017-10-03T22:09:52.215Z,13.10
2017-10-03T22:12:21.090Z,13.00
2017-10-03T22:14:49.329Z,12.90
2017-10-03T22:17:18.344Z,12.80
2017-10-03T22:19:46.601Z,12.80
2017-10-03T22:22:14.851Z,12.80
2017-10-03T22:24:43.095Z,12.90
2017-10-03T22:27:11.361Z,12.90
2017-10-03T22:29:39.605Z,12.90
2017-10-03T22:32:08.613Z,12.70
2017-10-03T22:34:36.965Z,12.70
2017-10-03T22:37:05.210Z,12.60
2017-10-03T22:39:33.449Z,12.60
2017-10-03T22:42:01.725Z,12.50
2017-10-03T22:44:29.974Z,12.50
2017-10-03T22:46:58.982Z,12.50
2017-10-03T22:49:28.014Z,12.50
2017-10-03T22:52:02.021Z,12.50
2017-10-03T22:54:30.609Z,12.50
2017-10-03T22:56:58.878Z,12.50
2017-10-03T22:59:27.110Z,12.40
2017-10-03T23:01:55.389Z,12.40
2017-10-03T23:04:24.393Z,12.30
2017-10-03T23:06:53.401Z,12.40
2017-10-03T23:09:21.665Z,12.40
2017-10-03T23:11:49.905Z,12.40
2017-10-03T23:14:18.513Z,12.50
2017-10-03T23:16:47.729Z,12.20
2017-10-03T23:19:15.978Z,12.30
2017-10-03T23:21:44.225Z,12.20
2017-10-03T23:24:12.482Z,12.10
2017-10-03T23:26:40.726Z,12.00
2017-10-03T23:29:09.737Z,12.00
2017-10-03T23:31:38.009Z,12.00
2017-10-03T23:34:06.250Z,12.00
2017-10-03T23:36:34.489Z,12.00
2017-10-03T23:39:03.278Z,12.10
2017-10-03T23:41:31.522Z,12.20
2017-10-03T23:43:59.761Z,12.20
2017-10-03T23:46:28.022Z,12.10
2017-10-03T23:48:56.266Z,12.10
2017-10-03T23:51:24.513Z,12.00
2017-10-03T23:53:53.542Z,12.00
2017-10-03T23:56:21.784Z,12.00
2017-10-03T23:58:50.017Z,11.90
